createdAt,value
2023-01-06T11:25:37.660Z,50.70
2023-01-06T11:28:18.532Z,5.00
2023-01-06T11:30:53.368Z,4.50
2023-01-06T11:33:24.438Z,4.20
2023-01-06T11:36:05.849Z,4.20
2023-01-06T11:38:43.588Z,4.60
2023-01-06T11:41:24.767Z,5.00
2023-01-06T11:44:08.929Z,5.70
2023-01-06T11:46:40.795Z,4.70
2023-01-06T11:49:16.191Z,5.00
2023-01-06T11:51:49.178Z,10.80
2023-01-06T11:54:26.195Z,5.90
2023-01-06T11:57:25.916Z,6.30
2023-01-06T12:00:18.966Z,6.70
2023-01-06T12:03:01.096Z,17.40
2023-01-06T12:05:41.617Z,15.60
2023-01-06T12:08:17.997Z,13.50
2023-01-06T12:10:52.764Z,5.40
2023-01-06T12:13:24.511Z,5.80
2023-01-06T12:16:00.252Z,7.30
2023-01-06T12:18:33.016Z,6.00
2023-01-06T12:21:04.994Z,5.20
2023-01-06T12:23:38.274Z,4.90
2023-01-06T12:26:14.146Z,5.50
2023-01-06T12:28:52.538Z,5.20
2023-01-06T12:31:37.689Z,5.30
2023-01-06T12:34:15.862Z,5.30
2023-01-06T12:36:51.073Z,4.90
2023-01-06T12:39:28.122Z,4.90
2023-01-06T12:42:04.056Z,4.80
2023-01-06T12:44:45.708Z,5.00
2023-01-06T12:47:29.011Z,5.30
2023-01-06T12:50:02.228Z,6.50
2023-01-06T12:52:36.508Z,5.90
2023-01-06T12:55:12.830Z,5.00
2023-01-06T12:57:54.382Z,5.60
2023-01-06T13:00:48.876Z,6.90
2023-01-06T13:04:16.535Z,6.10
2023-01-06T13:06:59.665Z,6.20
2023-01-06T13:09:43.372Z,7.20
2023-01-06T13:12:41.568Z,6.90
2023-01-06T13:15:20.006Z,7.20
2023-01-06T13:20:28.786Z,5.80
2023-01-06T13:23:21.100Z,5.40
2023-01-06T13:26:12.000Z,6.70
2023-01-06T13:28:48.349Z,6.30
2023-01-06T13:31:40.602Z,5.80
2023-01-06T13:34:47.825Z,6.70
2023-01-06T13:37:39.008Z,6.50
2023-01-06T13:40:20.909Z,5.90
2023-01-06T13:42:55.340Z,6.50
2023-01-06T13:45:30.862Z,6.80
2023-01-06T13:48:08.710Z,7.20
2023-01-06T13:50:39.530Z,8.40
2023-01-06T13:53:18.324Z,6.90
2023-01-06T13:56:10.315Z,7.10
2023-01-06T13:58:41.300Z,6.80
2023-01-06T14:01:14.289Z,6.50
2023-01-06T14:03:47.783Z,5.10
2023-01-06T14:06:47.605Z,6.20
2023-01-06T14:09:21.912Z,5.60
2023-01-06T14:11:53.119Z,7.00
2023-01-06T14:14:29.948Z,5.90
2023-01-06T14:17:04.692Z,7.50
2023-01-06T14:19:37.867Z,7.50
2023-01-06T14:22:29.414Z,6.90
2023-01-06T14:25:06.722Z,6.50
2023-01-06T14:28:23.120Z,6.10
2023-01-06T14:31:41.128Z,6.40
2023-01-06T14:34:22.416Z,6.10
2023-01-06T14:36:55.669Z,6.50
2023-01-06T14:39:29.969Z,6.80
2023-01-06T14:42:03.888Z,7.20
2023-01-06T14:44:43.690Z,7.20
2023-01-06T14:47:27.322Z,7.10
2023-01-06T14:50:00.767Z,7.70
2023-01-06T14:52:34.242Z,8.70
2023-01-06T14:55:11.059Z,8.70
2023-01-06T14:57:41.631Z,11.30
2023-01-06T15:00:25.868Z,9.60
2023-01-06T15:03:25.666Z,9.50
2023-01-06T15:06:10.762Z,8.80
2023-01-06T15:08:39.894Z,9.40
2023-01-06T15:11:26.464Z,7.40
2023-01-06T15:14:01.308Z,8.10
2023-01-06T15:16:36.856Z,8.50
2023-01-06T15:19:12.272Z,8.90
2023-01-06T15:21:44.833Z,8.80
2023-01-06T15:24:24.183Z,9.30
2023-01-06T15:26:57.413Z,9.70
2023-01-06T15:29:26.818Z,9.70
2023-01-06T15:31:59.408Z,9.40
2023-01-06T15:34:36.995Z,8.20
2023-01-06T15:37:15.504Z,8.50
2023-01-06T15:39:50.028Z,9.20
2023-01-06T15:42:32.544Z,8.20
2023-01-06T15:45:07.621Z,8.30
2023-01-06T15:47:44.357Z,9.30
2023-01-06T15:50:23.806Z,9.60
2023-01-06T15:53:00.166Z,11.00
2023-01-06T15:55:33.546Z,18.70
2023-01-06T15:58:08.564Z,16.30
2023-01-06T16:00:44.671Z,10.80
2023-01-06T16:03:21.002Z,17.10
2023-01-06T16:06:10.859Z,13.90
2023-01-06T16:08:43.779Z,10.50
2023-01-06T16:11:46.957Z,10.20
2023-01-06T16:14:32.552Z,9.60
2023-01-06T16:17:11.603Z,9.70
2023-01-06T16:19:51.078Z,8.90
2023-01-06T16:22:48.378Z,10.10
2023-01-06T16:25:28.780Z,9.10
2023-01-06T16:28:00.699Z,10.40
2023-01-06T16:30:35.736Z,11.70
2023-01-06T16:33:22.437Z,10.90
2023-01-06T16:35:54.244Z,11.00
2023-01-06T16:38:28.726Z,9.00
2023-01-06T16:40:58.032Z,10.30
2023-01-06T16:43:28.900Z,10.00
2023-01-06T16:46:10.099Z,9.70
2023-01-06T16:48:39.459Z,9.60
2023-01-06T16:51:18.783Z,12.10
2023-01-06T16:53:53.030Z,13.10
2023-01-06T16:56:27.377Z,11.70
2023-01-06T16:59:02.270Z,10.80
2023-01-06T17:01:36.766Z,10.20
2023-01-06T17:04:10.783Z,10.80
2023-01-06T17:06:44.074Z,10.70
2023-01-06T17:09:19.283Z,9.50
2023-01-06T17:12:01.875Z,9.40
2023-01-06T17:14:31.341Z,10.50
2023-01-06T17:17:08.989Z,10.30
2023-01-06T17:19:38.963Z,9.20
2023-01-06T17:22:30.319Z,10.10
2023-01-06T17:25:09.537Z,8.60
2023-01-06T17:27:44.828Z,11.70
2023-01-06T17:30:24.070Z,12.80
2023-01-06T17:32:59.139Z,13.40
2023-01-06T17:35:31.905Z,12.90
2023-01-06T17:38:14.730Z,12.60
2023-01-06T17:44:14.761Z,12.60
2023-01-06T17:46:44.347Z,9.20
2023-01-06T17:49:36.432Z,12.50
2023-01-06T17:52:32.337Z,10.30
2023-01-06T17:55:42.485Z,12.30
2023-01-06T17:58:18.856Z,12.10
2023-01-06T18:00:56.827Z,14.50
2023-01-06T18:03:34.461Z,10.60
2023-01-06T18:06:21.154Z,13.10
2023-01-06T18:09:21.675Z,13.70
2023-01-06T18:12:04.934Z,12.90
2023-01-06T18:15:00.020Z,12.50
2023-01-06T18:17:41.832Z,12.20
2023-01-06T18:20:19.976Z,10.40
2023-01-06T18:23:03.104Z,13.10
2023-01-06T18:25:36.713Z,13.90
2023-01-06T18:28:15.833Z,13.50
2023-01-06T18:30:48.074Z,13.40
2023-01-06T18:33:17.775Z,13.10
2023-01-06T18:35:52.176Z,12.30
2023-01-06T18:38:22.500Z,14.30
2023-01-06T18:40:59.011Z,13.80
2023-01-06T18:43:33.793Z,13.60
2023-01-06T18:46:17.240Z,15.00
2023-01-06T18:48:48.368Z,15.90
2023-01-06T18:51:21.162Z,15.30
2023-01-06T18:53:52.730Z,15.80
2023-01-06T18:56:24.363Z,14.90
2023-01-06T18:59:14.528Z,16.30
2023-01-06T19:01:48.465Z,13.30
2023-01-06T19:04:28.375Z,14.90
2023-01-06T19:07:04.315Z,13.00
2023-01-06T19:09:38.043Z,15.20
2023-01-06T19:12:35.932Z,14.70
2023-01-06T19:15:26.734Z,12.70
2023-01-06T19:18:07.077Z,10.30
2023-01-06T19:20:42.186Z,12.30
2023-01-06T19:23:21.932Z,11.60
2023-01-06T19:25:58.423Z,14.90
2023-01-06T19:28:31.733Z,12.50
2023-01-06T19:31:03.030Z,14.50
2023-01-06T19:33:42.117Z,12.20
2023-01-06T19:36:35.455Z,12.70
2023-01-06T19:39:23.472Z,13.00
2023-01-06T19:41:54.080Z,13.20
2023-01-06T19:44:32.138Z,11.90
2023-01-06T19:47:11.010Z,12.00
2023-01-06T19:49:47.140Z,12.50
2023-01-06T19:52:31.054Z,13.90
2023-01-06T19:55:21.650Z,12.00
2023-01-06T19:57:54.119Z,12.60
2023-01-06T20:00:29.879Z,13.30
2023-01-06T20:03:09.352Z,12.40
2023-01-06T20:05:38.685Z,10.20
2023-01-06T20:08:13.966Z,11.60
2023-01-06T20:10:43.887Z,12.70
2023-01-06T20:13:15.022Z,13.50
2023-01-06T20:15:47.656Z,12.20
2023-01-06T20:18:18.551Z,12.80
2023-01-06T20:20:51.223Z,10.90
2023-01-06T20:23:25.099Z,12.20
2023-01-06T20:26:05.155Z,12.60
2023-01-06T20:28:36.780Z,12.60
2023-01-06T20:31:06.109Z,12.20
2023-01-06T20:33:35.089Z,10.60
2023-01-06T20:36:05.482Z,10.30
2023-01-06T20:38:36.588Z,12.70
2023-01-06T20:41:17.277Z,12.40
2023-01-06T20:43:48.173Z,12.80
2023-01-06T20:46:19.703Z,12.70
2023-01-06T20:48:51.074Z,12.30
2023-01-06T20:51:22.769Z,12.80
2023-01-06T20:53:56.436Z,12.20
2023-01-06T20:56:28.462Z,11.20
2023-01-06T20:59:02.414Z,11.00
2023-01-06T21:01:35.533Z,11.30
2023-01-06T21:04:05.044Z,11.50
2023-01-06T21:06:36.502Z,12.40
2023-01-06T21:09:07.567Z,13.60
2023-01-06T21:11:37.957Z,10.90
2023-01-06T21:14:08.059Z,12.30
2023-01-06T21:16:37.624Z,11.50
2023-01-06T21:19:06.475Z,12.70
2023-01-06T21:21:35.255Z,15.60
2023-01-06T21:24:04.544Z,15.00
2023-01-06T21:26:37.062Z,17.00
2023-01-06T21:29:05.999Z,16.10
2023-01-06T21:31:36.674Z,14.70
2023-01-06T21:34:07.786Z,15.20
2023-01-06T21:36:37.074Z,14.70
2023-01-06T21:39:08.577Z,15.80
2023-01-06T21:41:57.088Z,16.70
2023-01-06T21:44:27.878Z,13.40
2023-01-06T21:47:00.697Z,13.60
2023-01-06T21:49:34.404Z,12.70
2023-01-06T21:52:05.452Z,11.30
2023-01-06T21:54:35.224Z,10.10
2023-01-06T21:57:05.786Z,10.50
2023-01-06T21:59:38.341Z,12.20
2023-01-06T22:02:09.297Z,11.00
2023-01-06T22:04:38.987Z,10.90
2023-01-06T22:07:09.457Z,11.30
2023-01-06T22:09:40.745Z,11.50
2023-01-06T22:12:12.886Z,8.30
2023-01-06T22:14:43.445Z,9.40
2023-01-06T22:17:12.952Z,18.10
2023-01-06T22:19:44.275Z,12.00
2023-01-06T22:22:13.558Z,12.50
2023-01-06T22:24:42.687Z,12.80
2023-01-06T22:27:11.483Z,12.70
2023-01-06T22:29:40.178Z,11.20
2023-01-06T22:32:12.807Z,10.10
2023-01-06T22:34:41.743Z,10.30
2023-01-06T22:37:11.497Z,10.10
2023-01-06T22:39:42.950Z,9.30
2023-01-06T22:42:11.530Z,9.70
2023-01-06T22:44:41.363Z,9.80
2023-01-06T22:47:12.342Z,10.10
2023-01-06T22:49:41.193Z,11.70
2023-01-06T22:52:12.987Z,12.70
2023-01-06T22:54:41.688Z,14.20
2023-01-06T22:57:11.942Z,14.70
2023-01-06T22:59:41.174Z,12.70
2023-01-06T23:02:12.279Z,16.20
2023-01-06T23:04:43.444Z,16.00
2023-01-06T23:07:13.560Z,13.60
2023-01-06T23:09:44.120Z,12.80
2023-01-06T23:12:13.926Z,11.20
2023-01-06T23:14:42.588Z,10.40
2023-01-06T23:17:12.532Z,11.30
2023-01-06T23:19:42.145Z,12.10
2023-01-06T23:22:13.000Z,12.00
2023-01-06T23:24:44.221Z,12.70
2023-01-06T23:27:16.168Z,12.20
2023-01-06T23:29:48.258Z,11.90
2023-01-06T23:32:17.586Z,12.30
2023-01-06T23:34:47.337Z,11.10
2023-01-06T23:37:17.234Z,11.50
2023-01-06T23:39:52.594Z,12.20
2023-01-06T23:42:34.392Z,11.50
2023-01-06T23:45:08.033Z,11.30
2023-01-06T23:47:37.117Z,11.90
2023-01-06T23:50:07.179Z,10.70
2023-01-06T23:52:36.361Z,12.20
2023-01-06T23:55:06.834Z,12.50
2023-01-06T23:57:36.197Z,13.80
